sensor_id;sensor_type;location;lat;lon;timestamp;temperature;humidity
11597;DHT22;5854;48.072;16.286;2023-03-05T00:02:21;4.60;54.50
11597;DHT22;5854;48.072;16.286;2023-03-05T00:04:48;4.60;54.70
11597;DHT22;5854;48.072;16.286;2023-03-05T00:07:15;4.70;53.30
11597;DHT22;5854;48.072;16.286;2023-03-05T00:09:42;4.70;56.80
11597;DHT22;5854;48.072;16.286;2023-03-05T00:12:09;4.60;57.00
11597;DHT22;5854;48.072;16.286;2023-03-05T00:14:37;4.70;57.00
11597;DHT22;5854;48.072;16.286;2023-03-05T00:17:05;4.70;54.50
11597;DHT22;5854;48.072;16.286;2023-03-05T00:19:32;4.50;56.90
11597;DHT22;5854;48.072;16.286;2023-03-05T00:21:59;4.50;54.40
11597;DHT22;5854;48.072;16.286;2023-03-05T00:24:27;4.50;53.70
11597;DHT22;5854;48.072;16.286;2023-03-05T00:26:54;4.40;52.00
11597;DHT22;5854;48.072;16.286;2023-03-05T00:29:21;4.50;56.90
11597;DHT22;5854;48.072;16.286;2023-03-05T00:31:49;4.60;55.80
11597;DHT22;5854;48.072;16.286;2023-03-05T00:34:18;4.60;55.90
11597;DHT22;5854;48.072;16.286;2023-03-05T00:36:47;4.60;55.00
11597;DHT22;5854;48.072;16.286;2023-03-05T00:39:17;4.50;55.20
11597;DHT22;5854;48.072;16.286;2023-03-05T00:41:47;4.50;53.20
11597;DHT22;5854;48.072;16.286;2023-03-05T00:44:15;4.60;53.30
11597;DHT22;5854;48.072;16.286;2023-03-05T00:46:42;4.50;53.30
11597;DHT22;5854;48.072;16.286;2023-03-05T00:49:09;4.40;51.80
11597;DHT22;5854;48.072;16.286;2023-03-05T00:51:38;4.40;56.90
11597;DHT22;5854;48.072;16.286;2023-03-05T00:54:05;4.50;55.70
11597;DHT22;5854;48.072;16.286;2023-03-05T00:56:32;4.60;53.00
11597;DHT22;5854;48.072;16.286;2023-03-05T00:59:00;4.60;57.20
11597;DHT22;5854;48.072;16.286;2023-03-05T01:01:27;4.60;53.80
11597;DHT22;5854;48.072;16.286;2023-03-05T01:03:54;4.50;55.60
11597;DHT22;5854;48.072;16.286;2023-03-05T01:06:22;4.40;54.50
11597;DHT22;5854;48.072;16.286;2023-03-05T01:08:51;4.40;55.70
11597;DHT22;5854;48.072;16.286;2023-03-05T01:11:18;4.50;55.20
11597;DHT22;5854;48.072;16.286;2023-03-05T01:13:45;4.50;52.90
11597;DHT22;5854;48.072;16.286;2023-03-05T01:16:12;4.40;56.60
11597;DHT22;5854;48.072;16.286;2023-03-05T01:18:40;4.60;55.50
11597;DHT22;5854;48.072;16.286;2023-03-05T01:21:07;4.60;55.20
11597;DHT22;5854;48.072;16.286;2023-03-05T01:23:34;4.50;55.00
11597;DHT22;5854;48.072;16.286;2023-03-05T01:26:04;4.50;54.40
11597;DHT22;5854;48.072;16.286;2023-03-05T01:28:33;4.40;52.20
11597;DHT22;5854;48.072;16.286;2023-03-05T01:31:00;4.20;54.60
11597;DHT22;5854;48.072;16.286;2023-03-05T01:33:28;4.30;56.90
11597;DHT22;5854;48.072;16.286;2023-03-05T01:35:55;4.30;54.80
11597;DHT22;5854;48.072;16.286;2023-03-05T01:38:22;4.50;56.40
11597;DHT22;5854;48.072;16.286;2023-03-05T01:40:49;4.30;52.10
11597;DHT22;5854;48.072;16.286;2023-03-05T01:43:24;4.10;53.90
11597;DHT22;5854;48.072;16.286;2023-03-05T01:49:02;4.40;53.30
11597;DHT22;5854;48.072;16.286;2023-03-05T01:51:35;4.40;53.80
11597;DHT22;5854;48.072;16.286;2023-03-05T01:54:05;4.30;53.70
11597;DHT22;5854;48.072;16.286;2023-03-05T01:56:34;4.40;56.60
11597;DHT22;5854;48.072;16.286;2023-03-05T01:59:03;4.30;56.00
11597;DHT22;5854;48.072;16.286;2023-03-05T02:01:41;4.20;53.80
11597;DHT22;5854;48.072;16.286;2023-03-05T02:04:12;4.10;53.00
11597;DHT22;5854;48.072;16.286;2023-03-05T02:06:42;4.20;55.30
11597;DHT22;5854;48.072;16.286;2023-03-05T02:09:09;4.20;56.50
11597;DHT22;5854;48.072;16.286;2023-03-05T02:11:36;4.30;56.90
11597;DHT22;5854;48.072;16.286;2023-03-05T02:14:06;4.20;54.70
11597;DHT22;5854;48.072;16.286;2023-03-05T02:16:34;4.20;55.30
11597;DHT22;5854;48.072;16.286;2023-03-05T02:19:02;4.20;54.50
11597;DHT22;5854;48.072;16.286;2023-03-05T02:21:38;4.20;55.90
11597;DHT22;5854;48.072;16.286;2023-03-05T02:24:08;4.40;56.70
11597;DHT22;5854;48.072;16.286;2023-03-05T02:26:37;4.40;57.30
11597;DHT22;5854;48.072;16.286;2023-03-05T02:29:08;4.40;56.20
11597;DHT22;5854;48.072;16.286;2023-03-05T02:31:37;4.20;54.10
11597;DHT22;5854;48.072;16.286;2023-03-05T02:34:05;4.20;55.00
11597;DHT22;5854;48.072;16.286;2023-03-05T02:36:32;4.10;55.00
11597;DHT22;5854;48.072;16.286;2023-03-05T02:39:01;4.10;56.80
11597;DHT22;5854;48.072;16.286;2023-03-05T02:41:28;4.20;56.10
11597;DHT22;5854;48.072;16.286;2023-03-05T02:43:55;4.30;58.60
11597;DHT22;5854;48.072;16.286;2023-03-05T02:46:22;4.30;57.20
11597;DHT22;5854;48.072;16.286;2023-03-05T02:48:49;4.30;56.90
11597;DHT22;5854;48.072;16.286;2023-03-05T02:51:17;4.30;58.40
11597;DHT22;5854;48.072;16.286;2023-03-05T02:53:44;4.10;56.70
11597;DHT22;5854;48.072;16.286;2023-03-05T02:56:13;4.10;53.90
11597;DHT22;5854;48.072;16.286;2023-03-05T02:58:40;4.10;56.70
11597;DHT22;5854;48.072;16.286;2023-03-05T03:01:08;4.20;57.00
11597;DHT22;5854;48.072;16.286;2023-03-05T03:03:35;4.10;54.50
11597;DHT22;5854;48.072;16.286;2023-03-05T03:06:03;4.10;56.90
11597;DHT22;5854;48.072;16.286;2023-03-05T03:08:31;4.10;55.80
11597;DHT22;5854;48.072;16.286;2023-03-05T03:11:04;4.20;57.40
11597;DHT22;5854;48.072;16.286;2023-03-05T03:13:33;4.20;56.60
11597;DHT22;5854;48.072;16.286;2023-03-05T03:16:02;4.30;56.70
11597;DHT22;5854;48.072;16.286;2023-03-05T03:18:30;4.20;56.80
11597;DHT22;5854;48.072;16.286;2023-03-05T03:20:57;4.20;58.00
11597;DHT22;5854;48.072;16.286;2023-03-05T03:23:25;4.10;55.70
11597;DHT22;5854;48.072;16.286;2023-03-05T03:25:52;4.30;58.00
11597;DHT22;5854;48.072;16.286;2023-03-05T03:28:19;4.20;55.80
11597;DHT22;5854;48.072;16.286;2023-03-05T03:30:48;4.20;56.20
11597;DHT22;5854;48.072;16.286;2023-03-05T03:33:16;4.10;54.00
11597;DHT22;5854;48.072;16.286;2023-03-05T03:35:43;4.10;57.40
11597;DHT22;5854;48.072;16.286;2023-03-05T03:38:11;4.20;57.70
11597;DHT22;5854;48.072;16.286;2023-03-05T03:40:39;4.20;55.40
11597;DHT22;5854;48.072;16.286;2023-03-05T03:43:06;4.20;57.30
11597;DHT22;5854;48.072;16.286;2023-03-05T03:45:33;4.30;56.80
11597;DHT22;5854;48.072;16.286;2023-03-05T03:48:02;4.30;56.80
11597;DHT22;5854;48.072;16.286;2023-03-05T03:50:29;4.10;55.60
11597;DHT22;5854;48.072;16.286;2023-03-05T03:52:56;4.20;57.80
11597;DHT22;5854;48.072;16.286;2023-03-05T03:55:23;4.20;56.30
11597;DHT22;5854;48.072;16.286;2023-03-05T03:57:50;4.20;56.10
11597;DHT22;5854;48.072;16.286;2023-03-05T04:00:18;4.30;57.00
11597;DHT22;5854;48.072;16.286;2023-03-05T04:02:46;4.20;58.40
11597;DHT22;5854;48.072;16.286;2023-03-05T04:05:14;4.10;57.10
11597;DHT22;5854;48.072;16.286;2023-03-05T04:07:41;4.10;56.10
11597;DHT22;5854;48.072;16.286;2023-03-05T04:10:10;4.00;57.20
11597;DHT22;5854;48.072;16.286;2023-03-05T04:12:38;4.00;56.40
11597;DHT22;5854;48.072;16.286;2023-03-05T04:15:08;4.20;55.50
11597;DHT22;5854;48.072;16.286;2023-03-05T04:17:36;4.10;57.40
11597;DHT22;5854;48.072;16.286;2023-03-05T04:20:04;4.10;56.20
11597;DHT22;5854;48.072;16.286;2023-03-05T04:22:35;4.30;57.70
11597;DHT22;5854;48.072;16.286;2023-03-05T04:25:03;4.20;54.90
11597;DHT22;5854;48.072;16.286;2023-03-05T04:27:31;4.10;56.80
11597;DHT22;5854;48.072;16.286;2023-03-05T04:29:59;4.00;57.20
11597;DHT22;5854;48.072;16.286;2023-03-05T04:32:27;4.00;58.10
11597;DHT22;5854;48.072;16.286;2023-03-05T04:34:54;4.20;57.30
11597;DHT22;5854;48.072;16.286;2023-03-05T04:37:22;4.30;56.90
11597;DHT22;5854;48.072;16.286;2023-03-05T04:39:51;4.10;56.40
11597;DHT22;5854;48.072;16.286;2023-03-05T04:42:18;4.20;56.90
11597;DHT22;5854;48.072;16.286;2023-03-05T04:44:46;4.10;57.80
11597;DHT22;5854;48.072;16.286;2023-03-05T04:47:13;4.10;56.30
11597;DHT22;5854;48.072;16.286;2023-03-05T04:49:40;4.10;58.10
11597;DHT22;5854;48.072;16.286;2023-03-05T04:52:08;4.10;56.90
11597;DHT22;5854;48.072;16.286;2023-03-05T04:54:36;4.10;56.00
11597;DHT22;5854;48.072;16.286;2023-03-05T04:57:05;4.00;56.40
11597;DHT22;5854;48.072;16.286;2023-03-05T04:59:33;4.00;57.20
11597;DHT22;5854;48.072;16.286;2023-03-05T05:02:00;4.00;56.60
11597;DHT22;5854;48.072;16.286;2023-03-05T05:04:27;4.10;57.80
11597;DHT22;5854;48.072;16.286;2023-03-05T05:06:55;4.10;56.80
11597;DHT22;5854;48.072;16.286;2023-03-05T05:09:23;4.00;57.50
11597;DHT22;5854;48.072;16.286;2023-03-05T05:11:50;4.10;57.40
11597;DHT22;5854;48.072;16.286;2023-03-05T05:14:19;4.00;56.90
11597;DHT22;5854;48.072;16.286;2023-03-05T05:16:46;4.00;57.10
11597;DHT22;5854;48.072;16.286;2023-03-05T05:19:13;4.00;57.00
11597;DHT22;5854;48.072;16.286;2023-03-05T05:21:40;4.00;57.90
11597;DHT22;5854;48.072;16.286;2023-03-05T05:24:08;4.00;57.20
11597;DHT22;5854;48.072;16.286;2023-03-05T05:26:35;3.90;58.20
11597;DHT22;5854;48.072;16.286;2023-03-05T05:29:02;3.90;58.30
11597;DHT22;5854;48.072;16.286;2023-03-05T05:31:30;3.90;58.50
11597;DHT22;5854;48.072;16.286;2023-03-05T05:33:58;4.00;58.60
11597;DHT22;5854;48.072;16.286;2023-03-05T05:36:25;3.90;58.00
11597;DHT22;5854;48.072;16.286;2023-03-05T05:38:52;4.00;58.20
11597;DHT22;5854;48.072;16.286;2023-03-05T05:41:19;3.90;58.90
11597;DHT22;5854;48.072;16.286;2023-03-05T05:43:47;4.00;59.10
11597;DHT22;5854;48.072;16.286;2023-03-05T05:46:17;3.90;58.30
11597;DHT22;5854;48.072;16.286;2023-03-05T05:48:46;3.90;58.00
11597;DHT22;5854;48.072;16.286;2023-03-05T05:51:15;4.00;58.70
11597;DHT22;5854;48.072;16.286;2023-03-05T05:53:43;4.10;58.70
11597;DHT22;5854;48.072;16.286;2023-03-05T05:56:11;4.10;57.60
11597;DHT22;5854;48.072;16.286;2023-03-05T05:58:41;4.00;57.80
11597;DHT22;5854;48.072;16.286;2023-03-05T06:01:13;4.00;58.30
11597;DHT22;5854;48.072;16.286;2023-03-05T06:03:41;4.00;58.10
11597;DHT22;5854;48.072;16.286;2023-03-05T06:06:12;4.00;58.70
11597;DHT22;5854;48.072;16.286;2023-03-05T06:08:40;4.10;59.10
11597;DHT22;5854;48.072;16.286;2023-03-05T06:11:07;4.20;58.70
11597;DHT22;5854;48.072;16.286;2023-03-05T06:13:35;4.10;56.90
11597;DHT22;5854;48.072;16.286;2023-03-05T06:16:05;4.10;57.80
11597;DHT22;5854;48.072;16.286;2023-03-05T06:18:34;4.10;58.30
11597;DHT22;5854;48.072;16.286;2023-03-05T06:21:04;4.10;58.20
11597;DHT22;5854;48.072;16.286;2023-03-05T06:23:34;4.20;57.00
11597;DHT22;5854;48.072;16.286;2023-03-05T06:26:02;4.20;57.90
11597;DHT22;5854;48.072;16.286;2023-03-05T06:28:31;4.20;57.50
11597;DHT22;5854;48.072;16.286;2023-03-05T06:31:00;4.20;58.20
11597;DHT22;5854;48.072;16.286;2023-03-05T06:33:27;4.10;56.70
11597;DHT22;5854;48.072;16.286;2023-03-05T06:35:55;4.10;57.80
11597;DHT22;5854;48.072;16.286;2023-03-05T06:38:22;4.00;57.60
11597;DHT22;5854;48.072;16.286;2023-03-05T06:40:51;4.20;58.50
11597;DHT22;5854;48.072;16.286;2023-03-05T06:43:18;4.10;57.60
11597;DHT22;5854;48.072;16.286;2023-03-05T06:45:47;4.20;57.40
11597;DHT22;5854;48.072;16.286;2023-03-05T06:48:14;4.00;56.90
11597;DHT22;5854;48.072;16.286;2023-03-05T06:50:41;3.90;57.90
11597;DHT22;5854;48.072;16.286;2023-03-05T06:53:08;4.00;57.90
11597;DHT22;5854;48.072;16.286;2023-03-05T06:55:36;4.00;58.60
11597;DHT22;5854;48.072;16.286;2023-03-05T06:58:07;4.00;56.90
11597;DHT22;5854;48.072;16.286;2023-03-05T07:00:34;4.00;58.40
11597;DHT22;5854;48.072;16.286;2023-03-05T07:03:01;4.00;57.10
11597;DHT22;5854;48.072;16.286;2023-03-05T07:05:28;4.10;56.40
11597;DHT22;5854;48.072;16.286;2023-03-05T07:07:56;4.10;57.40
11597;DHT22;5854;48.072;16.286;2023-03-05T07:10:23;4.20;56.40
11597;DHT22;5854;48.072;16.286;2023-03-05T07:12:50;4.10;56.80
11597;DHT22;5854;48.072;16.286;2023-03-05T07:15:18;4.10;57.60
11597;DHT22;5854;48.072;16.286;2023-03-05T07:17:45;4.30;56.60
11597;DHT22;5854;48.072;16.286;2023-03-05T07:20:12;4.30;56.80
11597;DHT22;5854;48.072;16.286;2023-03-05T07:22:39;4.30;57.00
11597;DHT22;5854;48.072;16.286;2023-03-05T07:25:07;4.30;55.90
11597;DHT22;5854;48.072;16.286;2023-03-05T07:27:35;4.20;57.40
11597;DHT22;5854;48.072;16.286;2023-03-05T07:30:04;4.20;57.40
11597;DHT22;5854;48.072;16.286;2023-03-05T07:32:35;4.20;56.00
11597;DHT22;5854;48.072;16.286;2023-03-05T07:35:02;4.30;57.70
11597;DHT22;5854;48.072;16.286;2023-03-05T07:37:29;4.30;56.50
11597;DHT22;5854;48.072;16.286;2023-03-05T07:39:57;4.30;57.20
11597;DHT22;5854;48.072;16.286;2023-03-05T07:42:24;4.30;56.30
11597;DHT22;5854;48.072;16.286;2023-03-05T07:44:51;4.20;55.90
11597;DHT22;5854;48.072;16.286;2023-03-05T07:47:18;4.20;55.90
11597;DHT22;5854;48.072;16.286;2023-03-05T07:49:47;4.30;57.10
11597;DHT22;5854;48.072;16.286;2023-03-05T07:52:14;4.30;56.60
11597;DHT22;5854;48.072;16.286;2023-03-05T07:54:41;4.30;56.70
11597;DHT22;5854;48.072;16.286;2023-03-05T07:57:10;4.40;55.70
11597;DHT22;5854;48.072;16.286;2023-03-05T07:59:38;4.40;56.40
11597;DHT22;5854;48.072;16.286;2023-03-05T08:02:06;4.50;57.20
11597;DHT22;5854;48.072;16.286;2023-03-05T08:04:33;4.50;55.20
11597;DHT22;5854;48.072;16.286;2023-03-05T08:07:02;4.50;56.00
11597;DHT22;5854;48.072;16.286;2023-03-05T08:09:29;4.60;56.20
11597;DHT22;5854;48.072;16.286;2023-03-05T08:11:56;4.60;55.40
11597;DHT22;5854;48.072;16.286;2023-03-05T08:14:24;4.50;55.00
11597;DHT22;5854;48.072;16.286;2023-03-05T08:16:51;4.50;55.40
11597;DHT22;5854;48.072;16.286;2023-03-05T08:19:19;4.70;56.30
11597;DHT22;5854;48.072;16.286;2023-03-05T08:21:47;4.80;55.10
11597;DHT22;5854;48.072;16.286;2023-03-05T08:24:16;4.80;55.00
11597;DHT22;5854;48.072;16.286;2023-03-05T08:26:43;4.80;54.50
11597;DHT22;5854;48.072;16.286;2023-03-05T08:29:14;4.80;55.10
11597;DHT22;5854;48.072;16.286;2023-03-05T08:31:44;4.80;53.20
11597;DHT22;5854;48.072;16.286;2023-03-05T08:34:12;4.90;54.50
11597;DHT22;5854;48.072;16.286;2023-03-05T08:36:39;4.90;54.80
11597;DHT22;5854;48.072;16.286;2023-03-05T08:39:06;4.90;54.70
11597;DHT22;5854;48.072;16.286;2023-03-05T08:41:35;4.90;54.40
11597;DHT22;5854;48.072;16.286;2023-03-05T08:44:03;4.90;53.90
11597;DHT22;5854;48.072;16.286;2023-03-05T08:46:30;5.10;53.70
11597;DHT22;5854;48.072;16.286;2023-03-05T08:48:57;5.20;54.40
11597;DHT22;5854;48.072;16.286;2023-03-05T08:51:25;5.10;52.80
11597;DHT22;5854;48.072;16.286;2023-03-05T08:53:54;5.20;54.10
11597;DHT22;5854;48.072;16.286;2023-03-05T08:56:23;5.20;52.80
11597;DHT22;5854;48.072;16.286;2023-03-05T08:58:54;5.20;53.30
11597;DHT22;5854;48.072;16.286;2023-03-05T09:01:21;5.20;53.50
11597;DHT22;5854;48.072;16.286;2023-03-05T09:03:48;5.30;52.60
11597;DHT22;5854;48.072;16.286;2023-03-05T09:06:15;5.30;53.40
11597;DHT22;5854;48.072;16.286;2023-03-05T09:08:43;5.30;51.70
11597;DHT22;5854;48.072;16.286;2023-03-05T09:11:12;5.30;52.20
11597;DHT22;5854;48.072;16.286;2023-03-05T09:13:39;5.40;52.80
11597;DHT22;5854;48.072;16.286;2023-03-05T09:16:11;5.30;53.40
11597;DHT22;5854;48.072;16.286;2023-03-05T09:18:40;5.10;52.10
11597;DHT22;5854;48.072;16.286;2023-03-05T09:21:09;5.20;52.10
11597;DHT22;5854;48.072;16.286;2023-03-05T09:23:37;5.30;52.30
11597;DHT22;5854;48.072;16.286;2023-03-05T09:26:06;5.30;52.90
11597;DHT22;5854;48.072;16.286;2023-03-05T09:28:34;5.40;51.90
11597;DHT22;5854;48.072;16.286;2023-03-05T09:31:01;5.40;52.30
11597;DHT22;5854;48.072;16.286;2023-03-05T09:33:31;5.40;52.20
11597;DHT22;5854;48.072;16.286;2023-03-05T09:35:58;5.40;52.80
11597;DHT22;5854;48.072;16.286;2023-03-05T09:38:26;5.50;52.80
11597;DHT22;5854;48.072;16.286;2023-03-05T09:40:58;5.40;51.80
11597;DHT22;5854;48.072;16.286;2023-03-05T09:43:40;5.50;51.80
11597;DHT22;5854;48.072;16.286;2023-03-05T09:46:21;5.50;51.70
11597;DHT22;5854;48.072;16.286;2023-03-05T09:49:03;5.40;51.60
11597;DHT22;5854;48.072;16.286;2023-03-05T09:51:38;5.50;50.60
11597;DHT22;5854;48.072;16.286;2023-03-05T09:54:12;5.50;52.10
11597;DHT22;5854;48.072;16.286;2023-03-05T09:56:44;5.50;52.40
11597;DHT22;5854;48.072;16.286;2023-03-05T09:59:19;5.60;51.70
11597;DHT22;5854;48.072;16.286;2023-03-05T10:01:52;5.70;50.40
11597;DHT22;5854;48.072;16.286;2023-03-05T10:04:25;5.70;51.50
11597;DHT22;5854;48.072;16.286;2023-03-05T10:07:12;5.80;49.40
11597;DHT22;5854;48.072;16.286;2023-03-05T10:09:45;6.00;50.70
11597;DHT22;5854;48.072;16.286;2023-03-05T10:12:21;6.10;50.30
11597;DHT22;5854;48.072;16.286;2023-03-05T10:14:52;6.20;49.50
11597;DHT22;5854;48.072;16.286;2023-03-05T10:17:43;6.40;49.90
11597;DHT22;5854;48.072;16.286;2023-03-05T10:20:33;6.50;49.20
11597;DHT22;5854;48.072;16.286;2023-03-05T10:23:22;6.50;49.20
11597;DHT22;5854;48.072;16.286;2023-03-05T10:26:05;6.70;49.70
11597;DHT22;5854;48.072;16.286;2023-03-05T10:28:42;6.80;48.30
11597;DHT22;5854;48.072;16.286;2023-03-05T10:31:28;6.60;49.10
11597;DHT22;5854;48.072;16.286;2023-03-05T10:37:44;6.60;48.00
11597;DHT22;5854;48.072;16.286;2023-03-05T10:40:23;6.50;49.30
11597;DHT22;5854;48.072;16.286;2023-03-05T10:43:00;6.60;48.70
11597;DHT22;5854;48.072;16.286;2023-03-05T10:45:35;6.60;47.70
11597;DHT22;5854;48.072;16.286;2023-03-05T10:48:11;6.60;48.00
11597;DHT22;5854;48.072;16.286;2023-03-05T10:50:45;6.50;48.60
11597;DHT22;5854;48.072;16.286;2023-03-05T10:53:21;6.40;49.80
11597;DHT22;5854;48.072;16.286;2023-03-05T10:55:50;6.50;48.50
11597;DHT22;5854;48.072;16.286;2023-03-05T10:58:21;6.70;48.60
11597;DHT22;5854;48.072;16.286;2023-03-05T11:01:04;6.70;48.20
11597;DHT22;5854;48.072;16.286;2023-03-05T11:03:48;6.80;48.30
11597;DHT22;5854;48.072;16.286;2023-03-05T11:06:32;6.80;47.60
11597;DHT22;5854;48.072;16.286;2023-03-05T11:09:17;6.70;47.10
11597;DHT22;5854;48.072;16.286;2023-03-05T11:12:03;6.80;47.90
11597;DHT22;5854;48.072;16.286;2023-03-05T11:14:38;6.90;48.70
11597;DHT22;5854;48.072;16.286;2023-03-05T11:17:27;7.00;54.60
11597;DHT22;5854;48.072;16.286;2023-03-05T11:19:56;7.00;48.30
11597;DHT22;5854;48.072;16.286;2023-03-05T11:22:24;6.90;46.70
11597;DHT22;5854;48.072;16.286;2023-03-05T11:25:20;6.90;47.70
11597;DHT22;5854;48.072;16.286;2023-03-05T11:27:54;6.90;47.40
11597;DHT22;5854;48.072;16.286;2023-03-05T11:30:25;6.80;46.60
11597;DHT22;5854;48.072;16.286;2023-03-05T11:33:07;6.80;47.40
11597;DHT22;5854;48.072;16.286;2023-03-05T11:35:37;6.80;47.80
11597;DHT22;5854;48.072;16.286;2023-03-05T11:38:15;6.90;46.80
11597;DHT22;5854;48.072;16.286;2023-03-05T11:40:45;7.10;48.10
11597;DHT22;5854;48.072;16.286;2023-03-05T11:43:15;7.00;46.70
11597;DHT22;5854;48.072;16.286;2023-03-05T11:45:49;7.10;45.20
11597;DHT22;5854;48.072;16.286;2023-03-05T11:48:20;7.10;45.20
11597;DHT22;5854;48.072;16.286;2023-03-05T11:50:53;7.20;47.10
11597;DHT22;5854;48.072;16.286;2023-03-05T11:53:24;7.10;46.10
11597;DHT22;5854;48.072;16.286;2023-03-05T11:55:58;6.90;46.70
11597;DHT22;5854;48.072;16.286;2023-03-05T11:58:38;6.80;48.00
11597;DHT22;5854;48.072;16.286;2023-03-05T12:01:16;6.80;46.20
11597;DHT22;5854;48.072;16.286;2023-03-05T12:03:45;7.00;45.20
11597;DHT22;5854;48.072;16.286;2023-03-05T12:06:17;7.10;46.80
11597;DHT22;5854;48.072;16.286;2023-03-05T12:08:56;7.00;44.20
11597;DHT22;5854;48.072;16.286;2023-03-05T12:11:31;6.90;47.40
11597;DHT22;5854;48.072;16.286;2023-03-05T12:16:40;6.90;45.30
11597;DHT22;5854;48.072;16.286;2023-03-05T12:19:31;6.90;47.10
11597;DHT22;5854;48.072;16.286;2023-03-05T12:22:02;7.00;47.50
11597;DHT22;5854;48.072;16.286;2023-03-05T12:24:35;7.00;46.60
11597;DHT22;5854;48.072;16.286;2023-03-05T12:27:13;6.90;44.70
11597;DHT22;5854;48.072;16.286;2023-03-05T12:29:47;7.00;47.00
11597;DHT22;5854;48.072;16.286;2023-03-05T12:35:36;6.90;46.90
11597;DHT22;5854;48.072;16.286;2023-03-05T12:38:17;6.70;48.00
11597;DHT22;5854;48.072;16.286;2023-03-05T12:44:16;6.80;45.90
11597;DHT22;5854;48.072;16.286;2023-03-05T12:47:15;6.80;46.20
11597;DHT22;5854;48.072;16.286;2023-03-05T12:49:53;6.80;47.50
11597;DHT22;5854;48.072;16.286;2023-03-05T12:52:40;6.70;46.60
11597;DHT22;5854;48.072;16.286;2023-03-05T12:55:17;6.80;44.70
11597;DHT22;5854;48.072;16.286;2023-03-05T13:09:00;6.90;44.20
11597;DHT22;5854;48.072;16.286;2023-03-05T13:29:31;6.90;44.50
11597;DHT22;5854;48.072;16.286;2023-03-05T13:32:03;6.90;46.30
11597;DHT22;5854;48.072;16.286;2023-03-05T13:34:46;6.90;46.00
11597;DHT22;5854;48.072;16.286;2023-03-05T13:37:20;7.00;44.80
11597;DHT22;5854;48.072;16.286;2023-03-05T13:39:51;7.00;42.70
11597;DHT22;5854;48.072;16.286;2023-03-05T13:42:25;7.00;45.70
11597;DHT22;5854;48.072;16.286;2023-03-05T13:44:58;7.00;45.90
11597;DHT22;5854;48.072;16.286;2023-03-05T13:47:34;6.90;44.70
11597;DHT22;5854;48.072;16.286;2023-03-05T13:50:06;6.90;46.40
11597;DHT22;5854;48.072;16.286;2023-03-05T13:52:52;6.90;45.40
11597;DHT22;5854;48.072;16.286;2023-03-05T13:55:20;7.00;43.70
11597;DHT22;5854;48.072;16.286;2023-03-05T13:57:51;7.10;46.20
11597;DHT22;5854;48.072;16.286;2023-03-05T14:00:31;6.90;43.00
11597;DHT22;5854;48.072;16.286;2023-03-05T14:03:06;6.80;46.10
11597;DHT22;5854;48.072;16.286;2023-03-05T14:05:35;6.80;46.00
11597;DHT22;5854;48.072;16.286;2023-03-05T14:08:19;6.70;46.30
11597;DHT22;5854;48.072;16.286;2023-03-05T14:11:16;6.60;46.10
11597;DHT22;5854;48.072;16.286;2023-03-05T14:13:47;6.60;47.50
11597;DHT22;5854;48.072;16.286;2023-03-05T14:16:23;6.50;45.70
11597;DHT22;5854;48.072;16.286;2023-03-05T14:18:54;6.60;50.20
11597;DHT22;5854;48.072;16.286;2023-03-05T14:21:25;6.60;47.80
11597;DHT22;5854;48.072;16.286;2023-03-05T14:24:13;6.50;46.20
11597;DHT22;5854;48.072;16.286;2023-03-05T14:26:50;6.60;48.50
11597;DHT22;5854;48.072;16.286;2023-03-05T14:29:22;6.50;45.40
11597;DHT22;5854;48.072;16.286;2023-03-05T14:31:52;6.40;46.20
11597;DHT22;5854;48.072;16.286;2023-03-05T14:34:30;6.50;48.00
11597;DHT22;5854;48.072;16.286;2023-03-05T14:37:01;6.50;48.00
11597;DHT22;5854;48.072;16.286;2023-03-05T14:39:37;6.50;47.50
11597;DHT22;5854;48.072;16.286;2023-03-05T14:42:29;6.50;48.10
11597;DHT22;5854;48.072;16.286;2023-03-05T14:44:59;6.60;50.00
11597;DHT22;5854;48.072;16.286;2023-03-05T14:47:31;6.50;46.80
11597;DHT22;5854;48.072;16.286;2023-03-05T14:49:59;6.50;45.70
11597;DHT22;5854;48.072;16.286;2023-03-05T15:04:40;6.50;48.10
11597;DHT22;5854;48.072;16.286;2023-03-05T15:07:29;6.50;44.90
11597;DHT22;5854;48.072;16.286;2023-03-05T15:09:56;6.50;46.40
11597;DHT22;5854;48.072;16.286;2023-03-05T15:12:30;6.50;47.30
11597;DHT22;5854;48.072;16.286;2023-03-05T15:15:14;6.50;45.80
11597;DHT22;5854;48.072;16.286;2023-03-05T15:17:49;6.40;45.80
11597;DHT22;5854;48.072;16.286;2023-03-05T15:20:24;6.40;48.40
11597;DHT22;5854;48.072;16.286;2023-03-05T16:06:35;6.30;46.70
11597;DHT22;5854;48.072;16.286;2023-03-05T16:09:04;6.30;46.30
11597;DHT22;5854;48.072;16.286;2023-03-05T16:19:57;6.10;47.90
11597;DHT22;5854;48.072;16.286;2023-03-05T16:22:23;6.20;46.00
11597;DHT22;5854;48.072;16.286;2023-03-05T16:24:50;6.20;50.30
11597;DHT22;5854;48.072;16.286;2023-03-05T16:27:22;6.20;45.10
11597;DHT22;5854;48.072;16.286;2023-03-05T16:29:55;6.20;47.60
11597;DHT22;5854;48.072;16.286;2023-03-05T16:53:06;6.10;48.30
11597;DHT22;5854;48.072;16.286;2023-03-05T16:55:33;6.20;48.00
11597;DHT22;5854;48.072;16.286;2023-03-05T16:58:00;6.10;46.40
11597;DHT22;5854;48.072;16.286;2023-03-05T17:00:27;6.00;48.30
11597;DHT22;5854;48.072;16.286;2023-03-05T17:02:55;6.10;50.60
11597;DHT22;5854;48.072;16.286;2023-03-05T17:05:22;6.20;49.80
11597;DHT22;5854;48.072;16.286;2023-03-05T17:07:52;6.20;49.40
11597;DHT22;5854;48.072;16.286;2023-03-05T17:10:21;6.10;49.60
11597;DHT22;5854;48.072;16.286;2023-03-05T17:12:48;5.90;45.70
11597;DHT22;5854;48.072;16.286;2023-03-05T17:15:17;5.90;45.90
11597;DHT22;5854;48.072;16.286;2023-03-05T17:17:48;5.90;50.60
11597;DHT22;5854;48.072;16.286;2023-03-05T17:20:16;5.90;48.70
11597;DHT22;5854;48.072;16.286;2023-03-05T17:22:44;5.90;50.00
11597;DHT22;5854;48.072;16.286;2023-03-05T17:25:12;6.00;51.50
11597;DHT22;5854;48.072;16.286;2023-03-05T17:27:41;5.90;46.30
11597;DHT22;5854;48.072;16.286;2023-03-05T17:30:09;5.90;48.60
11597;DHT22;5854;48.072;16.286;2023-03-05T17:32:38;5.80;47.30
11597;DHT22;5854;48.072;16.286;2023-03-05T17:35:06;5.80;48.20
11597;DHT22;5854;48.072;16.286;2023-03-05T17:37:33;5.90;50.50
11597;DHT22;5854;48.072;16.286;2023-03-05T17:40:00;5.90;47.80
11597;DHT22;5854;48.072;16.286;2023-03-05T17:42:29;5.90;50.10
11597;DHT22;5854;48.072;16.286;2023-03-05T17:44:58;5.80;49.90
11597;DHT22;5854;48.072;16.286;2023-03-05T17:47:26;5.90;50.90
11597;DHT22;5854;48.072;16.286;2023-03-05T17:49:57;5.90;50.30
11597;DHT22;5854;48.072;16.286;2023-03-05T17:52:25;6.00;50.20
11597;DHT22;5854;48.072;16.286;2023-03-05T17:54:52;6.00;50.50
11597;DHT22;5854;48.072;16.286;2023-03-05T17:57:50;6.00;50.50
11597;DHT22;5854;48.072;16.286;2023-03-05T18:02:50;6.00;50.80
11597;DHT22;5854;48.072;16.286;2023-03-05T18:05:22;5.90;46.80
11597;DHT22;5854;48.072;16.286;2023-03-05T18:07:52;5.90;47.50
11597;DHT22;5854;48.072;16.286;2023-03-05T18:10:22;5.90;49.00
11597;DHT22;5854;48.072;16.286;2023-03-05T18:12:53;5.90;46.70
11597;DHT22;5854;48.072;16.286;2023-03-05T18:15:23;5.80;49.20
11597;DHT22;5854;48.072;16.286;2023-03-05T18:17:51;5.80;50.70
11597;DHT22;5854;48.072;16.286;2023-03-05T18:20:28;5.80;48.50